KLCH/LCH METAR and TAF weather

Enter ICAO airport designator
Station Type Date Time Source
KLCH METAR 2019/08/24 08:53 UTC NOAA

KLCH 240853Z AUTO 13015G22KT 10SM FEW022 SCT028 BKN035 26/24 A2995 RMK AO2 LTG DSNT E SLP149 T02560244 53005


Station Type Date Time Source
KLCH Decoded METAR 2019/08/24 08:53 UTC NOAA

Station name not available
Aug 24, 2019 - 04:53 AM EDT / 2019.08.24 0853 UTC
Wind: from the SE (130 degrees) at 17 MPH (15 KT) gusting to 25 MPH (22 KT):0
Visibility: 10 mile(s):0
Sky conditions: mostly cloudy
Weather: Lightning observed
Temperature: 78.1 F (25.6 C)
Dew Point: 75.9 F (24.4 C)
Relative Humidity: 93%
Pressure (altimeter): 29.95 in. Hg (1014 hPa)
Pressure tendency: 0.01 inches (0.5 hPa) higher than three hours ago
ob: KLCH 240853Z AUTO 13015G22KT 10SM FEW022 SCT028 BKN035 26/24 A2995 RMK AO2 LTG DSNT E SLP149 T02560244 53005
cycle: 9

Station Type Date Time Source
KLCH TAF 2019/08/24 06:22 UTC NOAA

TAF KLCH 240520Z 2406/2506 11007KT P6SM VCSH SCT025 BKN150
FM240900 11005KT P6SM VCSH SCT025 OVC050
TEMPO 2410/2414 3SM SHRA BR BKN025
FM241400 14008KT P6SM VCTS SCT025CB OVC050
TEMPO 2414/2418 3SM SHRA BR BKN025
FM241800 17012G18KT 3SM SHRA VCTS SCT025CB BKN035
FM250000 18006KT P6SM VCTS SCT025CB BKN050 PROB30 2500/2506 3SM SHRA BR BKN025

Example: see airport list